sensor_id;sensor_type;location;lat;lon;timestamp;P1;durP1;ratioP1;P2;durP2;ratioP2
75426;SDS011;64007;50.632;13.700;2023-04-29T00:02:12;65.00;;;17.30;;
75426;SDS011;64007;50.632;13.700;2023-04-29T00:04:38;67.05;;;17.35;;
75426;SDS011;64007;50.632;13.700;2023-04-29T00:07:04;65.82;;;17.58;;
75426;SDS011;64007;50.632;13.700;2023-04-29T00:09:30;54.03;;;15.85;;
75426;SDS011;64007;50.632;13.700;2023-04-29T00:11:55;57.58;;;16.58;;
75426;SDS011;64007;50.632;13.700;2023-04-29T00:14:21;76.93;;;17.00;;
75426;SDS011;64007;50.632;13.700;2023-04-29T00:16:46;78.47;;;16.65;;
75426;SDS011;64007;50.632;13.700;2023-04-29T00:19:12;44.47;;;15.70;;
75426;SDS011;64007;50.632;13.700;2023-04-29T00:21:38;45.72;;;16.35;;
75426;SDS011;64007;50.632;13.700;2023-04-29T00:24:04;65.65;;;18.10;;
75426;SDS011;64007;50.632;13.700;2023-04-29T00:26:30;53.35;;;16.48;;
75426;SDS011;64007;50.632;13.700;2023-04-29T00:28:56;65.10;;;18.30;;
75426;SDS011;64007;50.632;13.700;2023-04-29T00:31:22;52.60;;;17.42;;
75426;SDS011;64007;50.632;13.700;2023-04-29T00:33:48;50.03;;;17.38;;
75426;SDS011;64007;50.632;13.700;2023-04-29T00:36:13;64.88;;;17.35;;
75426;SDS011;64007;50.632;13.700;2023-04-29T00:38:39;50.60;;;16.40;;
75426;SDS011;64007;50.632;13.700;2023-04-29T00:41:05;61.95;;;16.30;;
75426;SDS011;64007;50.632;13.700;2023-04-29T00:43:30;70.00;;;17.33;;
75426;SDS011;64007;50.632;13.700;2023-04-29T00:45:56;67.57;;;18.38;;
75426;SDS011;64007;50.632;13.700;2023-04-29T00:48:22;54.55;;;16.63;;
75426;SDS011;64007;50.632;13.700;2023-04-29T00:50:47;58.58;;;17.02;;
75426;SDS011;64007;50.632;13.700;2023-04-29T00:53:15;42.15;;;16.30;;
75426;SDS011;64007;50.632;13.700;2023-04-29T00:55:42;34.20;;;15.43;;
75426;SDS011;64007;50.632;13.700;2023-04-29T00:58:11;52.40;;;17.90;;
75426;SDS011;64007;50.632;13.700;2023-04-29T01:00:36;52.42;;;17.85;;
75426;SDS011;64007;50.632;13.700;2023-04-29T01:03:03;41.63;;;15.60;;
75426;SDS011;64007;50.632;13.700;2023-04-29T01:05:29;39.28;;;16.75;;
75426;SDS011;64007;50.632;13.700;2023-04-29T01:13:36;31.02;;;13.35;;
75426;SDS011;64007;50.632;13.700;2023-04-29T01:16:11;35.83;;;12.85;;
75426;SDS011;64007;50.632;13.700;2023-04-29T01:18:49;49.58;;;15.68;;
75426;SDS011;64007;50.632;13.700;2023-04-29T01:21:19;38.88;;;13.32;;
75426;SDS011;64007;50.632;13.700;2023-04-29T01:23:45;33.97;;;13.55;;
75426;SDS011;64007;50.632;13.700;2023-04-29T01:26:10;21.42;;;11.85;;
75426;SDS011;64007;50.632;13.700;2023-04-29T01:31:27;24.42;;;11.82;;
75426;SDS011;64007;50.632;13.700;2023-04-29T01:34:06;25.63;;;11.90;;
75426;SDS011;64007;50.632;13.700;2023-04-29T01:36:58;29.02;;;13.20;;
75426;SDS011;64007;50.632;13.700;2023-04-29T01:42:42;34.05;;;14.50;;
75426;SDS011;64007;50.632;13.700;2023-04-29T01:45:24;33.35;;;15.07;;
75426;SDS011;64007;50.632;13.700;2023-04-29T01:47:53;28.75;;;13.85;;
75426;SDS011;64007;50.632;13.700;2023-04-29T01:50:23;30.45;;;15.05;;
75426;SDS011;64007;50.632;13.700;2023-04-29T01:52:48;41.67;;;15.00;;
75426;SDS011;64007;50.632;13.700;2023-04-29T01:55:14;30.73;;;16.30;;
75426;SDS011;64007;50.632;13.700;2023-04-29T01:57:40;31.00;;;15.48;;
75426;SDS011;64007;50.632;13.700;2023-04-29T02:00:06;31.05;;;14.93;;
75426;SDS011;64007;50.632;13.700;2023-04-29T02:02:33;32.72;;;16.33;;
75426;SDS011;64007;50.632;13.700;2023-04-29T02:04:59;28.77;;;16.27;;
75426;SDS011;64007;50.632;13.700;2023-04-29T02:07:25;32.50;;;16.25;;
75426;SDS011;64007;50.632;13.700;2023-04-29T02:09:51;29.65;;;15.73;;
75426;SDS011;64007;50.632;13.700;2023-04-29T02:12:17;30.42;;;15.70;;
75426;SDS011;64007;50.632;13.700;2023-04-29T02:14:43;29.45;;;15.40;;
75426;SDS011;64007;50.632;13.700;2023-04-29T02:17:08;27.70;;;15.25;;
75426;SDS011;64007;50.632;13.700;2023-04-29T02:19:34;35.13;;;16.45;;
75426;SDS011;64007;50.632;13.700;2023-04-29T02:22:00;32.15;;;17.13;;
75426;SDS011;64007;50.632;13.700;2023-04-29T02:24:26;26.35;;;15.57;;
75426;SDS011;64007;50.632;13.700;2023-04-29T02:26:51;29.30;;;17.33;;
75426;SDS011;64007;50.632;13.700;2023-04-29T02:29:17;35.88;;;17.70;;
75426;SDS011;64007;50.632;13.700;2023-04-29T02:31:43;38.30;;;16.90;;
75426;SDS011;64007;50.632;13.700;2023-04-29T02:34:09;29.60;;;16.10;;
75426;SDS011;64007;50.632;13.700;2023-04-29T02:36:34;34.22;;;17.20;;
75426;SDS011;64007;50.632;13.700;2023-04-29T02:39:00;33.17;;;15.90;;
75426;SDS011;64007;50.632;13.700;2023-04-29T02:41:26;29.88;;;16.05;;
75426;SDS011;64007;50.632;13.700;2023-04-29T02:43:52;33.20;;;15.95;;
75426;SDS011;64007;50.632;13.700;2023-04-29T02:46:17;36.25;;;16.20;;
75426;SDS011;64007;50.632;13.700;2023-04-29T02:48:43;30.00;;;15.85;;
75426;SDS011;64007;50.632;13.700;2023-04-29T02:51:09;38.05;;;17.75;;
75426;SDS011;64007;50.632;13.700;2023-04-29T02:53:35;39.42;;;19.17;;
75426;SDS011;64007;50.632;13.700;2023-04-29T02:56:01;47.92;;;22.35;;
75426;SDS011;64007;50.632;13.700;2023-04-29T02:58:27;52.33;;;22.80;;
75426;SDS011;64007;50.632;13.700;2023-04-29T03:00:52;41.88;;;20.42;;
75426;SDS011;64007;50.632;13.700;2023-04-29T03:03:18;47.95;;;22.33;;
75426;SDS011;64007;50.632;13.700;2023-04-29T03:05:44;39.00;;;19.23;;
75426;SDS011;64007;50.632;13.700;2023-04-29T03:08:10;34.65;;;18.40;;
75426;SDS011;64007;50.632;13.700;2023-04-29T03:10:35;32.78;;;18.67;;
75426;SDS011;64007;50.632;13.700;2023-04-29T03:13:01;44.30;;;19.58;;
75426;SDS011;64007;50.632;13.700;2023-04-29T03:15:27;41.65;;;19.60;;
75426;SDS011;64007;50.632;13.700;2023-04-29T03:17:54;40.08;;;19.30;;
75426;SDS011;64007;50.632;13.700;2023-04-29T03:20:19;40.70;;;19.30;;
75426;SDS011;64007;50.632;13.700;2023-04-29T03:22:46;37.88;;;18.48;;
75426;SDS011;64007;50.632;13.700;2023-04-29T03:25:11;34.83;;;19.50;;
75426;SDS011;64007;50.632;13.700;2023-04-29T03:27:38;35.85;;;17.77;;
75426;SDS011;64007;50.632;13.700;2023-04-29T03:30:04;29.65;;;15.88;;
75426;SDS011;64007;50.632;13.700;2023-04-29T03:32:31;31.67;;;16.75;;
75426;SDS011;64007;50.632;13.700;2023-04-29T03:34:57;33.67;;;17.52;;
75426;SDS011;64007;50.632;13.700;2023-04-29T03:37:22;26.40;;;15.20;;
75426;SDS011;64007;50.632;13.700;2023-04-29T03:39:48;28.25;;;14.10;;
75426;SDS011;64007;50.632;13.700;2023-04-29T03:42:14;24.60;;;13.82;;
75426;SDS011;64007;50.632;13.700;2023-04-29T03:44:40;27.25;;;14.32;;
75426;SDS011;64007;50.632;13.700;2023-04-29T03:47:05;24.10;;;12.52;;
75426;SDS011;64007;50.632;13.700;2023-04-29T03:49:32;23.17;;;12.90;;
75426;SDS011;64007;50.632;13.700;2023-04-29T03:51:58;28.52;;;13.80;;
75426;SDS011;64007;50.632;13.700;2023-04-29T03:54:24;20.35;;;12.73;;
75426;SDS011;64007;50.632;13.700;2023-04-29T03:56:50;23.88;;;11.80;;
75426;SDS011;64007;50.632;13.700;2023-04-29T03:59:16;20.70;;;12.15;;
75426;SDS011;64007;50.632;13.700;2023-04-29T04:01:41;20.33;;;11.52;;
75426;SDS011;64007;50.632;13.700;2023-04-29T04:04:07;18.10;;;9.65;;
75426;SDS011;64007;50.632;13.700;2023-04-29T04:06:33;18.00;;;8.75;;
75426;SDS011;64007;50.632;13.700;2023-04-29T04:08:58;17.27;;;8.75;;
75426;SDS011;64007;50.632;13.700;2023-04-29T04:11:24;17.48;;;10.07;;
75426;SDS011;64007;50.632;13.700;2023-04-29T04:13:50;27.13;;;11.25;;
75426;SDS011;64007;50.632;13.700;2023-04-29T04:16:16;16.50;;;9.30;;
75426;SDS011;64007;50.632;13.700;2023-04-29T04:18:42;18.42;;;8.48;;
75426;SDS011;64007;50.632;13.700;2023-04-29T04:21:08;11.95;;;7.28;;
75426;SDS011;64007;50.632;13.700;2023-04-29T04:23:35;11.13;;;6.82;;
75426;SDS011;64007;50.632;13.700;2023-04-29T04:26:02;17.35;;;7.13;;
75426;SDS011;64007;50.632;13.700;2023-04-29T04:28:28;12.82;;;7.35;;
75426;SDS011;64007;50.632;13.700;2023-04-29T04:30:53;13.68;;;8.18;;
75426;SDS011;64007;50.632;13.700;2023-04-29T04:33:19;18.98;;;9.55;;
75426;SDS011;64007;50.632;13.700;2023-04-29T04:35:45;15.35;;;8.45;;
75426;SDS011;64007;50.632;13.700;2023-04-29T04:38:10;20.45;;;10.40;;
75426;SDS011;64007;50.632;13.700;2023-04-29T04:40:39;18.20;;;9.82;;
75426;SDS011;64007;50.632;13.700;2023-04-29T04:43:06;20.73;;;10.23;;
75426;SDS011;64007;50.632;13.700;2023-04-29T04:45:32;19.50;;;10.35;;
75426;SDS011;64007;50.632;13.700;2023-04-29T04:47:58;23.08;;;10.55;;
75426;SDS011;64007;50.632;13.700;2023-04-29T04:50:26;23.75;;;11.90;;
75426;SDS011;64007;50.632;13.700;2023-04-29T04:52:56;25.65;;;11.75;;
75426;SDS011;64007;50.632;13.700;2023-04-29T04:55:22;31.73;;;14.90;;
75426;SDS011;64007;50.632;13.700;2023-04-29T04:57:48;29.50;;;14.45;;
75426;SDS011;64007;50.632;13.700;2023-04-29T05:00:14;31.02;;;15.70;;
75426;SDS011;64007;50.632;13.700;2023-04-29T05:02:40;29.35;;;15.45;;
75426;SDS011;64007;50.632;13.700;2023-04-29T05:05:06;27.33;;;14.38;;
75426;SDS011;64007;50.632;13.700;2023-04-29T05:07:32;34.00;;;15.23;;
75426;SDS011;64007;50.632;13.700;2023-04-29T05:10:03;32.95;;;15.40;;
75426;SDS011;64007;50.632;13.700;2023-04-29T05:12:30;33.72;;;16.15;;
75426;SDS011;64007;50.632;13.700;2023-04-29T05:14:56;35.47;;;16.20;;
75426;SDS011;64007;50.632;13.700;2023-04-29T05:17:22;43.72;;;17.92;;
75426;SDS011;64007;50.632;13.700;2023-04-29T05:19:48;35.17;;;17.58;;
75426;SDS011;64007;50.632;13.700;2023-04-29T05:22:14;44.72;;;18.58;;
75426;SDS011;64007;50.632;13.700;2023-04-29T05:24:40;45.58;;;18.67;;
75426;SDS011;64007;50.632;13.700;2023-04-29T05:27:05;41.92;;;18.42;;
75426;SDS011;64007;50.632;13.700;2023-04-29T05:29:31;49.05;;;19.92;;
75426;SDS011;64007;50.632;13.700;2023-04-29T05:31:57;48.95;;;21.58;;
75426;SDS011;64007;50.632;13.700;2023-04-29T05:34:23;55.20;;;24.45;;
75426;SDS011;64007;50.632;13.700;2023-04-29T05:36:49;59.78;;;22.75;;
75426;SDS011;64007;50.632;13.700;2023-04-29T05:39:15;59.30;;;24.58;;
75426;SDS011;64007;50.632;13.700;2023-04-29T05:41:42;52.97;;;23.38;;
75426;SDS011;64007;50.632;13.700;2023-04-29T05:44:08;56.80;;;24.52;;
75426;SDS011;64007;50.632;13.700;2023-04-29T05:46:33;56.90;;;25.15;;
75426;SDS011;64007;50.632;13.700;2023-04-29T05:48:59;71.03;;;26.52;;
75426;SDS011;64007;50.632;13.700;2023-04-29T05:51:25;66.88;;;27.25;;
75426;SDS011;64007;50.632;13.700;2023-04-29T05:53:53;65.53;;;27.27;;
75426;SDS011;64007;50.632;13.700;2023-04-29T05:56:18;57.35;;;25.33;;
75426;SDS011;64007;50.632;13.700;2023-04-29T05:58:44;60.17;;;25.85;;
75426;SDS011;64007;50.632;13.700;2023-04-29T06:01:10;64.57;;;28.00;;
75426;SDS011;64007;50.632;13.700;2023-04-29T06:03:36;62.03;;;27.10;;
75426;SDS011;64007;50.632;13.700;2023-04-29T06:06:02;68.72;;;27.77;;
75426;SDS011;64007;50.632;13.700;2023-04-29T06:08:28;71.03;;;27.77;;
75426;SDS011;64007;50.632;13.700;2023-04-29T06:10:53;69.75;;;26.65;;
75426;SDS011;64007;50.632;13.700;2023-04-29T06:13:20;69.72;;;27.73;;
75426;SDS011;64007;50.632;13.700;2023-04-29T06:15:45;72.57;;;27.42;;
75426;SDS011;64007;50.632;13.700;2023-04-29T06:18:11;66.03;;;27.33;;
75426;SDS011;64007;50.632;13.700;2023-04-29T06:20:37;66.82;;;26.25;;
75426;SDS011;64007;50.632;13.700;2023-04-29T06:23:03;72.20;;;28.30;;
75426;SDS011;64007;50.632;13.700;2023-04-29T06:25:29;66.18;;;27.50;;
75426;SDS011;64007;50.632;13.700;2023-04-29T06:27:56;67.13;;;26.27;;
75426;SDS011;64007;50.632;13.700;2023-04-29T06:30:21;63.88;;;26.10;;
75426;SDS011;64007;50.632;13.700;2023-04-29T06:32:47;70.32;;;26.05;;
75426;SDS011;64007;50.632;13.700;2023-04-29T06:35:13;70.20;;;27.75;;
75426;SDS011;64007;50.632;13.700;2023-04-29T06:37:39;77.43;;;28.40;;
75426;SDS011;64007;50.632;13.700;2023-04-29T06:40:05;71.05;;;27.33;;
75426;SDS011;64007;50.632;13.700;2023-04-29T06:42:31;63.97;;;24.83;;
75426;SDS011;64007;50.632;13.700;2023-04-29T06:44:57;73.13;;;26.27;;
75426;SDS011;64007;50.632;13.700;2023-04-29T06:47:23;70.25;;;27.83;;
75426;SDS011;64007;50.632;13.700;2023-04-29T06:49:48;77.28;;;28.52;;
75426;SDS011;64007;50.632;13.700;2023-04-29T06:52:14;79.72;;;29.90;;
75426;SDS011;64007;50.632;13.700;2023-04-29T06:54:39;72.15;;;27.13;;
75426;SDS011;64007;50.632;13.700;2023-04-29T06:57:05;77.43;;;29.25;;
75426;SDS011;64007;50.632;13.700;2023-04-29T06:59:31;73.00;;;28.33;;
75426;SDS011;64007;50.632;13.700;2023-04-29T07:01:57;71.85;;;28.27;;
75426;SDS011;64007;50.632;13.700;2023-04-29T07:04:22;74.53;;;29.00;;
75426;SDS011;64007;50.632;13.700;2023-04-29T07:06:48;82.88;;;31.48;;
75426;SDS011;64007;50.632;13.700;2023-04-29T07:09:15;78.95;;;30.95;;
75426;SDS011;64007;50.632;13.700;2023-04-29T07:11:41;85.93;;;31.38;;
75426;SDS011;64007;50.632;13.700;2023-04-29T07:14:06;77.40;;;30.23;;
75426;SDS011;64007;50.632;13.700;2023-04-29T07:16:32;73.25;;;29.38;;
75426;SDS011;64007;50.632;13.700;2023-04-29T07:18:58;75.72;;;30.65;;
75426;SDS011;64007;50.632;13.700;2023-04-29T07:21:24;88.95;;;31.02;;
75426;SDS011;64007;50.632;13.700;2023-04-29T07:23:50;81.93;;;31.90;;
75426;SDS011;64007;50.632;13.700;2023-04-29T07:26:17;79.28;;;32.03;;
75426;SDS011;64007;50.632;13.700;2023-04-29T07:28:43;88.72;;;33.28;;
75426;SDS011;64007;50.632;13.700;2023-04-29T07:31:09;85.97;;;33.22;;
75426;SDS011;64007;50.632;13.700;2023-04-29T07:33:38;88.63;;;32.33;;
75426;SDS011;64007;50.632;13.700;2023-04-29T07:36:04;85.85;;;32.35;;
75426;SDS011;64007;50.632;13.700;2023-04-29T07:38:31;82.22;;;31.77;;
75426;SDS011;64007;50.632;13.700;2023-04-29T07:40:57;90.32;;;32.03;;
75426;SDS011;64007;50.632;13.700;2023-04-29T07:43:23;81.78;;;31.63;;
75426;SDS011;64007;50.632;13.700;2023-04-29T07:45:49;77.97;;;31.15;;
75426;SDS011;64007;50.632;13.700;2023-04-29T07:48:15;80.32;;;31.10;;
75426;SDS011;64007;50.632;13.700;2023-04-29T07:50:41;71.88;;;28.67;;
75426;SDS011;64007;50.632;13.700;2023-04-29T07:53:07;83.57;;;31.48;;
75426;SDS011;64007;50.632;13.700;2023-04-29T07:55:33;80.07;;;30.35;;
75426;SDS011;64007;50.632;13.700;2023-04-29T07:57:58;81.18;;;29.52;;
75426;SDS011;64007;50.632;13.700;2023-04-29T08:00:24;88.72;;;32.28;;
75426;SDS011;64007;50.632;13.700;2023-04-29T08:02:52;92.70;;;32.67;;
75426;SDS011;64007;50.632;13.700;2023-04-29T08:05:19;106.43;;;35.15;;
75426;SDS011;64007;50.632;13.700;2023-04-29T08:07:48;95.38;;;34.08;;
75426;SDS011;64007;50.632;13.700;2023-04-29T08:10:15;97.60;;;35.60;;
75426;SDS011;64007;50.632;13.700;2023-04-29T08:12:44;103.40;;;36.47;;
75426;SDS011;64007;50.632;13.700;2023-04-29T08:15:10;86.13;;;30.77;;
75426;SDS011;64007;50.632;13.700;2023-04-29T08:17:36;72.57;;;29.95;;
75426;SDS011;64007;50.632;13.700;2023-04-29T08:20:02;71.97;;;28.30;;
75426;SDS011;64007;50.632;13.700;2023-04-29T08:22:28;65.47;;;27.15;;
75426;SDS011;64007;50.632;13.700;2023-04-29T08:24:54;78.88;;;29.83;;
75426;SDS011;64007;50.632;13.700;2023-04-29T08:27:20;71.57;;;27.95;;
75426;SDS011;64007;50.632;13.700;2023-04-29T08:29:46;76.45;;;26.92;;
75426;SDS011;64007;50.632;13.700;2023-04-29T08:32:11;87.90;;;30.17;;
75426;SDS011;64007;50.632;13.700;2023-04-29T08:34:37;91.68;;;30.60;;
75426;SDS011;64007;50.632;13.700;2023-04-29T08:37:03;89.93;;;30.77;;
75426;SDS011;64007;50.632;13.700;2023-04-29T08:39:29;82.75;;;28.98;;
75426;SDS011;64007;50.632;13.700;2023-04-29T08:41:55;98.43;;;33.00;;
75426;SDS011;64007;50.632;13.700;2023-04-29T08:44:22;80.25;;;28.45;;
75426;SDS011;64007;50.632;13.700;2023-04-29T08:46:48;85.50;;;28.73;;
75426;SDS011;64007;50.632;13.700;2023-04-29T08:49:15;88.25;;;28.25;;
75426;SDS011;64007;50.632;13.700;2023-04-29T08:51:40;73.15;;;26.83;;
75426;SDS011;64007;50.632;13.700;2023-04-29T08:54:06;98.70;;;32.92;;
75426;SDS011;64007;50.632;13.700;2023-04-29T08:56:32;85.38;;;30.13;;
75426;SDS011;64007;50.632;13.700;2023-04-29T08:59:00;85.85;;;31.75;;
75426;SDS011;64007;50.632;13.700;2023-04-29T09:01:27;89.90;;;32.25;;
75426;SDS011;64007;50.632;13.700;2023-04-29T09:06:48;96.93;;;30.52;;
75426;SDS011;64007;50.632;13.700;2023-04-29T09:09:14;100.05;;;35.10;;
75426;SDS011;64007;50.632;13.700;2023-04-29T09:11:41;87.05;;;32.70;;
75426;SDS011;64007;50.632;13.700;2023-04-29T09:14:07;81.93;;;33.85;;
75426;SDS011;64007;50.632;13.700;2023-04-29T09:16:33;69.55;;;29.48;;
75426;SDS011;64007;50.632;13.700;2023-04-29T09:19:01;65.60;;;26.45;;
75426;SDS011;64007;50.632;13.700;2023-04-29T09:21:27;57.70;;;26.13;;
75426;SDS011;64007;50.632;13.700;2023-04-29T09:23:57;65.80;;;26.63;;
75426;SDS011;64007;50.632;13.700;2023-04-29T09:26:24;48.33;;;21.00;;
75426;SDS011;64007;50.632;13.700;2023-04-29T09:29:10;28.77;;;13.25;;
75426;SDS011;64007;50.632;13.700;2023-04-29T09:31:38;27.08;;;11.15;;
75426;SDS011;64007;50.632;13.700;2023-04-29T09:34:04;27.20;;;12.43;;
75426;SDS011;64007;50.632;13.700;2023-04-29T09:36:47;30.67;;;13.63;;
75426;SDS011;64007;50.632;13.700;2023-04-29T09:39:18;21.08;;;10.82;;
75426;SDS011;64007;50.632;13.700;2023-04-29T09:44:15;14.93;;;7.55;;
75426;SDS011;64007;50.632;13.700;2023-04-29T09:46:41;14.27;;;6.80;;
75426;SDS011;64007;50.632;13.700;2023-04-29T09:49:23;14.20;;;6.32;;
75426;SDS011;64007;50.632;13.700;2023-04-29T09:51:57;6.22;;;3.53;;
75426;SDS011;64007;50.632;13.700;2023-04-29T09:54:27;6.47;;;3.92;;
75426;SDS011;64007;50.632;13.700;2023-04-29T09:56:55;6.28;;;3.42;;
75426;SDS011;64007;50.632;13.700;2023-04-29T09:59:23;10.02;;;3.55;;
75426;SDS011;64007;50.632;13.700;2023-04-29T10:01:50;14.65;;;6.63;;
75426;SDS011;64007;50.632;13.700;2023-04-29T10:04:17;15.85;;;9.07;;
75426;SDS011;64007;50.632;13.700;2023-04-29T10:06:45;12.50;;;6.18;;
75426;SDS011;64007;50.632;13.700;2023-04-29T10:09:14;15.57;;;6.22;;
75426;SDS011;64007;50.632;13.700;2023-04-29T10:11:41;8.43;;;5.30;;
75426;SDS011;64007;50.632;13.700;2023-04-29T10:14:12;7.30;;;4.10;;
75426;SDS011;64007;50.632;13.700;2023-04-29T10:16:47;5.72;;;3.35;;
75426;SDS011;64007;50.632;13.700;2023-04-29T10:19:25;5.13;;;2.90;;
75426;SDS011;64007;50.632;13.700;2023-04-29T10:21:59;5.68;;;2.30;;
75426;SDS011;64007;50.632;13.700;2023-04-29T10:24:29;4.30;;;2.40;;
75426;SDS011;64007;50.632;13.700;2023-04-29T10:26:58;4.15;;;2.28;;
75426;SDS011;64007;50.632;13.700;2023-04-29T10:29:25;2.50;;;1.42;;
75426;SDS011;64007;50.632;13.700;2023-04-29T10:31:54;2.15;;;1.35;;
75426;SDS011;64007;50.632;13.700;2023-04-29T10:34:21;1.20;;;0.90;;
75426;SDS011;64007;50.632;13.700;2023-04-29T10:36:48;1.10;;;0.90;;
75426;SDS011;64007;50.632;13.700;2023-04-29T10:39:17;0.93;;;0.70;;
75426;SDS011;64007;50.632;13.700;2023-04-29T10:41:54;1.92;;;0.80;;
75426;SDS011;64007;50.632;13.700;2023-04-29T10:44:21;0.75;;;0.68;;
75426;SDS011;64007;50.632;13.700;2023-04-29T10:46:48;0.77;;;0.60;;
75426;SDS011;64007;50.632;13.700;2023-04-29T10:49:14;1.17;;;0.70;;
75426;SDS011;64007;50.632;13.700;2023-04-29T10:51:40;0.80;;;0.68;;
75426;SDS011;64007;50.632;13.700;2023-04-29T10:54:14;1.05;;;0.73;;
75426;SDS011;64007;50.632;13.700;2023-04-29T10:56:42;1.17;;;0.80;;
75426;SDS011;64007;50.632;13.700;2023-04-29T10:59:15;1.58;;;1.30;;
75426;SDS011;64007;50.632;13.700;2023-04-29T11:04:15;4.80;;;1.00;;
75426;SDS011;64007;50.632;13.700;2023-04-29T11:06:43;3.42;;;0.80;;
75426;SDS011;64007;50.632;13.700;2023-04-29T11:09:26;5.80;;;1.00;;
75426;SDS011;64007;50.632;13.700;2023-04-29T11:17:09;1.35;;;0.90;;
75426;SDS011;64007;50.632;13.700;2023-04-29T11:24:55;2.95;;;1.27;;
75426;SDS011;64007;50.632;13.700;2023-04-29T11:27:29;2.35;;;1.63;;
75426;SDS011;64007;50.632;13.700;2023-04-29T11:29:56;3.90;;;2.50;;
75426;SDS011;64007;50.632;13.700;2023-04-29T11:32:32;3.80;;;2.15;;
75426;SDS011;64007;50.632;13.700;2023-04-29T11:35:09;2.92;;;2.08;;
75426;SDS011;64007;50.632;13.700;2023-04-29T11:37:36;2.10;;;1.70;;
75426;SDS011;64007;50.632;13.700;2023-04-29T11:40:02;3.47;;;2.03;;
75426;SDS011;64007;50.632;13.700;2023-04-29T11:42:29;1.95;;;1.70;;
75426;SDS011;64007;50.632;13.700;2023-04-29T11:44:55;2.10;;;1.60;;
75426;SDS011;64007;50.632;13.700;2023-04-29T11:47:25;2.75;;;1.70;;
75426;SDS011;64007;50.632;13.700;2023-04-29T11:49:52;3.20;;;1.67;;
75426;SDS011;64007;50.632;13.700;2023-04-29T11:52:19;1.92;;;1.70;;
75426;SDS011;64007;50.632;13.700;2023-04-29T11:54:45;3.58;;;2.10;;
75426;SDS011;64007;50.632;13.700;2023-04-29T11:57:11;2.53;;;1.83;;
75426;SDS011;64007;50.632;13.700;2023-04-29T11:59:37;4.90;;;2.35;;
75426;SDS011;64007;50.632;13.700;2023-04-29T12:02:07;3.00;;;2.13;;
75426;SDS011;64007;50.632;13.700;2023-04-29T12:04:43;3.25;;;2.40;;
75426;SDS011;64007;50.632;13.700;2023-04-29T12:07:15;3.22;;;2.45;;
75426;SDS011;64007;50.632;13.700;2023-04-29T12:09:42;3.67;;;2.33;;
75426;SDS011;64007;50.632;13.700;2023-04-29T12:12:09;2.40;;;1.80;;
75426;SDS011;64007;50.632;13.700;2023-04-29T12:14:35;3.80;;;2.10;;
75426;SDS011;64007;50.632;13.700;2023-04-29T12:17:02;3.83;;;2.40;;
75426;SDS011;64007;50.632;13.700;2023-04-29T12:19:29;3.40;;;2.15;;
75426;SDS011;64007;50.632;13.700;2023-04-29T12:22:02;3.20;;;2.13;;
75426;SDS011;64007;50.632;13.700;2023-04-29T12:24:28;2.05;;;1.80;;
75426;SDS011;64007;50.632;13.700;2023-04-29T12:26:54;2.85;;;1.92;;
75426;SDS011;64007;50.632;13.700;2023-04-29T12:29:20;2.40;;;2.03;;
75426;SDS011;64007;50.632;13.700;2023-04-29T12:31:49;3.78;;;2.20;;
75426;SDS011;64007;50.632;13.700;2023-04-29T12:34:15;3.95;;;2.67;;
75426;SDS011;64007;50.632;13.700;2023-04-29T12:36:41;2.90;;;2.08;;
75426;SDS011;64007;50.632;13.700;2023-04-29T12:39:09;3.42;;;2.38;;
75426;SDS011;64007;50.632;13.700;2023-04-29T12:41:39;6.07;;;2.55;;
75426;SDS011;64007;50.632;13.700;2023-04-29T12:44:05;3.72;;;2.97;;
75426;SDS011;64007;50.632;13.700;2023-04-29T12:46:35;4.13;;;3.00;;
75426;SDS011;64007;50.632;13.700;2023-04-29T12:49:03;4.23;;;3.37;;
75426;SDS011;64007;50.632;13.700;2023-04-29T12:51:29;3.60;;;2.60;;
75426;SDS011;64007;50.632;13.700;2023-04-29T12:53:58;3.95;;;2.70;;
75426;SDS011;64007;50.632;13.700;2023-04-29T12:56:25;3.78;;;2.50;;
75426;SDS011;64007;50.632;13.700;2023-04-29T12:58:51;2.67;;;2.47;;
75426;SDS011;64007;50.632;13.700;2023-04-29T13:01:16;3.83;;;3.22;;
75426;SDS011;64007;50.632;13.700;2023-04-29T13:03:42;3.83;;;2.80;;
75426;SDS011;64007;50.632;13.700;2023-04-29T13:06:08;3.97;;;3.00;;
75426;SDS011;64007;50.632;13.700;2023-04-29T13:08:33;10.82;;;2.80;;
75426;SDS011;64007;50.632;13.700;2023-04-29T13:10:59;2.42;;;1.92;;
75426;SDS011;64007;50.632;13.700;2023-04-29T13:13:25;2.88;;;2.20;;
75426;SDS011;64007;50.632;13.700;2023-04-29T13:15:51;3.47;;;2.42;;
75426;SDS011;64007;50.632;13.700;2023-04-29T13:18:17;2.35;;;2.00;;
75426;SDS011;64007;50.632;13.700;2023-04-29T13:20:43;3.08;;;2.33;;
75426;SDS011;64007;50.632;13.700;2023-04-29T13:23:09;3.10;;;2.60;;
75426;SDS011;64007;50.632;13.700;2023-04-29T13:25:36;4.38;;;2.60;;
75426;SDS011;64007;50.632;13.700;2023-04-29T13:28:02;2.95;;;2.53;;
75426;SDS011;64007;50.632;13.700;2023-04-29T13:30:29;2.78;;;2.10;;
75426;SDS011;64007;50.632;13.700;2023-04-29T13:32:55;2.88;;;2.58;;
75426;SDS011;64007;50.632;13.700;2023-04-29T13:35:21;3.08;;;2.22;;
75426;SDS011;64007;50.632;13.700;2023-04-29T13:37:47;3.40;;;2.53;;
75426;SDS011;64007;50.632;13.700;2023-04-29T13:40:13;3.75;;;2.67;;
75426;SDS011;64007;50.632;13.700;2023-04-29T13:42:39;3.42;;;2.15;;
75426;SDS011;64007;50.632;13.700;2023-04-29T13:45:04;2.60;;;2.00;;
75426;SDS011;64007;50.632;13.700;2023-04-29T13:47:30;2.88;;;2.35;;
75426;SDS011;64007;50.632;13.700;2023-04-29T13:49:56;3.05;;;2.25;;
75426;SDS011;64007;50.632;13.700;2023-04-29T13:52:22;3.05;;;2.05;;
75426;SDS011;64007;50.632;13.700;2023-04-29T13:54:47;2.72;;;2.30;;
75426;SDS011;64007;50.632;13.700;2023-04-29T13:57:13;3.35;;;2.47;;
75426;SDS011;64007;50.632;13.700;2023-04-29T13:59:39;4.25;;;2.45;;
75426;SDS011;64007;50.632;13.700;2023-04-29T14:02:05;4.22;;;2.78;;
75426;SDS011;64007;50.632;13.700;2023-04-29T14:04:30;2.65;;;2.03;;
75426;SDS011;64007;50.632;13.700;2023-04-29T14:06:56;4.78;;;2.55;;
75426;SDS011;64007;50.632;13.700;2023-04-29T14:09:22;4.15;;;2.28;;
75426;SDS011;64007;50.632;13.700;2023-04-29T14:11:48;3.58;;;2.38;;
75426;SDS011;64007;50.632;13.700;2023-04-29T14:14:15;2.50;;;1.98;;
75426;SDS011;64007;50.632;13.700;2023-04-29T14:16:41;3.75;;;2.30;;
75426;SDS011;64007;50.632;13.700;2023-04-29T14:19:07;2.80;;;2.25;;
75426;SDS011;64007;50.632;13.700;2023-04-29T14:21:33;5.28;;;2.30;;
75426;SDS011;64007;50.632;13.700;2023-04-29T14:23:59;2.75;;;2.25;;
75426;SDS011;64007;50.632;13.700;2023-04-29T14:26:27;3.25;;;2.20;;
75426;SDS011;64007;50.632;13.700;2023-04-29T14:28:53;3.20;;;2.17;;
75426;SDS011;64007;50.632;13.700;2023-04-29T14:31:24;2.85;;;2.13;;
75426;SDS011;64007;50.632;13.700;2023-04-29T14:33:52;4.50;;;3.08;;
75426;SDS011;64007;50.632;13.700;2023-04-29T14:36:18;5.05;;;3.00;;
75426;SDS011;64007;50.632;13.700;2023-04-29T14:38:44;6.88;;;3.60;;
75426;SDS011;64007;50.632;13.700;2023-04-29T14:41:10;6.15;;;3.50;;
75426;SDS011;64007;50.632;13.700;2023-04-29T14:43:36;4.95;;;3.60;;
75426;SDS011;64007;50.632;13.700;2023-04-29T14:46:02;7.05;;;3.55;;
75426;SDS011;64007;50.632;13.700;2023-04-29T14:48:27;5.45;;;3.80;;